[Completed] 20JUL20 / 0530Z - Spicy Patterns @ KISP

Spicy Patterns @ KISP

  • Aircraft and Livery: Any GA aircraft!

  • Route: Pattern Work @ KISP

  • Time of Departure: 0530Z (now)

  • Server: Expert


Hello! My friend @Guxk is currently going for the record of the longest time controlling. He’s currently 15 hours into his 27-hour goal. Let’s go spice things up for him!

ATIS:
Long Island airport, ATIS information NOVEMBER, time 0434 ZULU, Wind 190 at 9 Visibility 10, Temperature 24, Dew Point 23, Altimeter 2988. Landing Runways 24 and 15R, Departing Runways 24 and 15R. Advise on initial contact, you have information NOVEMBER.

METAR:
KISP 200456Z AUTO 20007KT 10SM CLR 24/24 A2987 RMK AO2 SLP113 T02440239 403110228 $

6 Likes

Yeah I’ll be there

This topic was automatically closed 12 hours after the last reply. New replies are no longer allowed.